Flight Track Log - Related Links

Times and Time Zones

All times are in EDT time to prevent confusion due to time zone crossing. See the CCA1073 flight status page for this flight to view local times or setup timezone preferences in your user account.

Time Position Orientation Groundspeed Altitude Reporting Facility
EDT Latitude Longitude Course Direction KTS MPH feet Rate Location/Type
Wed 06:12:00 PM 31.2795 122.1981 68° East  Level Estimated
Wed 06:13:00 PM 31.3248 122.3337 69° East  Level Estimated
Wed 06:14:00 PM 31.3700 122.4693 69° East  Level Estimated
Wed 06:15:00 PM 31.4150 122.6051 69° East  Level Estimated
Wed 06:16:00 PM 31.4599 122.7410 69° East  Level Estimated
Wed 06:17:00 PM 31.5046 122.8770 69° East  Level Estimated
Wed 06:18:00 PM 31.5491 123.0132 69° East  Level Estimated
Wed 06:19:00 PM 31.5936 123.1495 69° East  Level Estimated
Wed 06:20:00 PM 31.6379 123.2859 69° East  Level Estimated
Wed 06:21:00 PM 31.6820 123.4225 69° East  Level Estimated
Wed 06:22:00 PM 31.7260 123.5592 69° East  Level Estimated
Wed 06:23:00 PM 31.7698 123.6960 69° East  Level Estimated
Wed 06:24:00 PM 31.8136 123.8329 69° East  Level Estimated
Wed 06:25:00 PM 31.8571 123.9700 69° East  Level Estimated
Wed 06:26:00 PM 31.9005 124.1072 70° East  Level Estimated
Wed 06:27:00 PM 31.9438 124.2446 70° East  Level Estimated
Wed 06:28:00 PM 31.9869 124.3820 70° East  Level Estimated
Wed 06:29:00 PM 32.0299 124.5196 70° East  Level Estimated
Wed 06:30:00 PM 32.0727 124.6574 70° East  Level Estimated
Wed 06:31:00 PM 32.1154 124.7952 70° East  Level Estimated
Wed 06:32:00 PM 32.1579 124.9332 70° East  Level Estimated
Wed 06:33:00 PM 32.2002 125.0713 70° East  Level Estimated
Wed 06:34:00 PM 32.2425 125.2095 70° East  Level Estimated
Wed 06:35:00 PM 32.2845 125.3479 70° East  Level Estimated
Wed 06:36:00 PM 32.3265 125.4864 70° East  Level Estimated
Wed 06:37:00 PM 32.3682 125.6250 70° East  Level Estimated
Wed 06:38:00 PM 32.4098 125.7638 70° East  Level Estimated
Wed 06:39:00 PM 32.4513 125.9026 70° East  Level Estimated
Wed 06:40:00 PM 32.4926 126.0417 71° East  Level Estimated
Wed 06:41:00 PM 32.5338 126.1808 71° East  Level Estimated
Wed 06:42:00 PM 32.5748 126.3201 71° East  Level Estimated
Wed 06:43:00 PM 32.6156 126.4594 71° East  Level Estimated
Wed 06:44:00 PM 32.6563 126.5990 71° East  Level Estimated
Wed 06:45:00 PM 32.6969 126.7386 71° East  Level Estimated
Wed 06:46:00 PM 32.7372 126.8784 71° East  Level Estimated
Wed 06:47:00 PM 32.7775 127.0183 71° East  Level Estimated
Wed 06:48:00 PM 32.8176 127.1583 71° East  Level Estimated
Wed 06:49:00 PM 32.8575 127.2984 71° East  Level Estimated
Wed 06:50:00 PM 32.8972 127.4387 71° East  Level Estimated
Wed 06:51:00 PM 32.9368 127.5791 71° East  Level Estimated
Wed 06:52:00 PM 32.9763 127.7196 71° East  Level Estimated
Wed 06:53:00 PM 33.0156 127.8603 72° East  Level Estimated
Wed 06:54:00 PM 33.0547 128.0011 72° East  Level Estimated
Wed 06:55:00 PM 33.0937 128.1420 72° East  Level Estimated
Wed 06:56:00 PM 33.1325 128.2830 72° East  Level Estimated
Wed 06:57:00 PM 33.1712 128.4241 72° East  Level Estimated
Wed 06:58:00 PM 33.2097 128.5654 72° East  Level Estimated
Wed 06:59:00 PM 33.2480 128.7068 72° East  Level Estimated
Wed 07:00:00 PM 33.2862 128.8483 72° East  Level Estimated
Wed 07:01:00 PM 33.3242 128.9900 72° East  Level Estimated
Wed 07:02:00 PM 33.3621 129.1317 72° East  Level Estimated
Wed 07:03:00 PM 33.3997 129.2736 72° East  Level Estimated
Wed 07:04:00 PM 33.4373 129.4156 72° East  Level Estimated
Wed 07:05:00 PM 33.4747 129.5578 72° East  Level Estimated
Wed 07:06:00 PM 33.5119 129.7000 73° East  Level Estimated
Wed 07:07:00 PM 33.5489 129.8424 73° East  Level Estimated
Wed 07:08:00 PM 33.5858 129.9849 73° East  Level Estimated
Wed 07:09:00 PM 33.6225 130.1275 73° East  Level Estimated
Wed 07:10:00 PM 33.6591 130.2703 73° East  Level Estimated
Wed 07:11:00 PM 33.6955 130.4132 73° East  Level Estimated
Wed 07:12:00 PM 33.7317 130.5562 73° East  Level Estimated
Wed 07:13:00 PM 33.7678 130.6993 73° East  Level Estimated
Wed 07:14:00 PM 33.8037 130.8425 73° East  Level Estimated
Wed 07:15:00 PM 33.8394 130.9858 73° East  Level Estimated
Wed 07:16:00 PM 33.8750 131.1293 73° East  Level Estimated
Wed 07:17:00 PM 33.9104 131.2729 73° East  Level Estimated
Wed 07:18:00 PM 33.9456 131.4166 73° East  Level Estimated
Wed 07:19:00 PM 33.9807 131.5604 74° East  Level Estimated
Wed 07:20:00 PM 34.0155 131.7044 74° East  Level Estimated
Wed 07:21:00 PM 34.0503 131.8484 74° East  Level Estimated
Wed 07:22:00 PM 34.0849 131.9926 74° East  Level Estimated
Wed 07:23:00 PM 34.1192 132.1369 74° East  Level Estimated
Wed 07:24:00 PM 34.1535 132.2813 74° East  Level Estimated
Wed 07:25:00 PM 34.1875 132.4259 74° East  Level Estimated
Wed 07:26:00 PM 34.2214 132.5705 74° East  Level Estimated
Wed 07:27:00 PM 34.2551 132.7153 74° East  Level Estimated
Wed 07:28:00 PM 34.2887 132.8602 74° East  Level Estimated
Wed 07:29:00 PM 34.3220 133.0051 74° East  Level Estimated
Wed 07:30:00 PM 34.3553 133.1503 74° East  Level Estimated
Wed 07:31:00 PM 34.3883 133.2955 75° East  Level Estimated
Wed 07:32:00 PM 34.4211 133.4408 75° East  Level Estimated
Wed 07:33:00 PM 34.4538 133.5863 75° East  Level Estimated
Wed 07:34:00 PM 34.4864 133.7318 75° East  Level Estimated
Wed 07:35:00 PM 34.5187 133.8775 75° East  Level Estimated
Wed 07:36:00 PM 34.5509 134.0233 75° East  Level Estimated
Wed 07:37:00 PM 34.5829 134.1692 75° East  Level Estimated
Wed 07:38:00 PM 34.6147 134.3152 75° East  Level Estimated
Wed 07:39:00 PM 34.6463 134.4614 75° East  Level Estimated
Wed 07:40:00 PM 34.6778 134.6076 75° East  Level Estimated
Wed 07:41:00 PM 34.7091 134.7540 75° East  Level Estimated
Wed 07:42:00 PM 34.7402 134.9004 75° East  Level Estimated
Wed 07:43:00 PM 34.7712 135.0470 76° East  Level Estimated
Wed 07:44:00 PM 34.8020 135.1937 76° East  Level Estimated
Wed 07:45:00 PM 34.8326 135.3405 76° East  Level Estimated
Wed 07:46:00 PM 34.8630 135.4874 76° East  Level Estimated
Wed 07:47:00 PM 34.8932 135.6344 76° East  Level Estimated
Wed 07:48:00 PM 34.9233 135.7815 76° East  Level Estimated
Wed 07:49:00 PM 34.9532 135.9287 76° East  Level Estimated
Wed 07:50:00 PM 34.9829 136.0760 76° East  Level Estimated
Wed 07:51:00 PM 35.0124 136.2235 76° East  Level Estimated
Wed 07:52:00 PM 35.0418 136.3710 76° East  Level Estimated
Wed 07:53:00 PM 35.0710 136.5187 76° East  Level Estimated
Wed 07:54:00 PM 35.1000 136.6664 76° East  Level Estimated
Wed 07:55:00 PM 35.1288 136.8143 77° East  Level Estimated
Wed 07:56:00 PM 35.1574 136.9623 77° East  Level Estimated
Wed 07:57:00 PM 35.1859 137.1103 77° East  Level Estimated
Wed 07:58:00 PM 35.2142 137.2585 77° East  Level Estimated
Wed 07:59:00 PM 35.2423 137.4068 77° East  Level Estimated
Wed 08:00:00 PM 35.2702 137.5551 77° East  Level Estimated
Wed 08:01:00 PM 35.2979 137.7036 77° East  Level Estimated
Wed 08:02:00 PM 35.3255 137.8522 77° East  Level Estimated
Wed 08:03:00 PM 35.3528 138.0009 77° East  Level Estimated
Wed 08:04:00 PM 35.3800 138.1497 77° East  Level Estimated
Wed 08:05:00 PM 35.4070 138.2986 77° East  Level Estimated
Wed 08:06:00 PM 35.4339 138.4475 77° East  Level Estimated
Wed 08:07:00 PM 35.4605 138.5966 78° East  Level Estimated
Wed 08:08:00 PM 35.4870 138.7458 78° East  Level Estimated
Wed 08:09:00 PM 35.5132 138.8951 78° East  Level Estimated
Wed 08:10:00 PM 35.5393 139.0444 78° East  Level Estimated
Wed 08:11:00 PM 35.5652 139.1939 78° East  Level Estimated
Wed 08:12:00 PM 35.5910 139.3435 78° East  Level Estimated
Wed 08:13:00 PM 35.6165 139.4931 78° East  Level Estimated
Wed 08:14:00 PM 35.6418 139.6429 78° East  Level Estimated
Wed 08:15:00 PM 35.6670 139.7928 78° East  Level Estimated
Wed 08:16:00 PM 35.6920 139.9427 78° East  Level Estimated
Wed 08:17:00 PM 35.7168 140.0927 78° East  Level Estimated
Wed 08:18:00 PM 35.7414 140.2429 79° East  Level Estimated
Wed 08:19:00 PM 35.7647 140.3864 79° East  Level Estimated
Wed 08:20:00 PM 35.7647 140.3864 North  Level Estimated
Wed 08:21:00 PM 35.7647 140.3864 North  Level Estimated
Wed 08:22:00 PM 35.7647 140.3864 North  Level Estimated
Wed 08:23:00 PM 35.7647 140.3864 North  Level Estimated
Wed 08:24:00 PM 35.7647 140.3864 North  Level Estimated
Wed 08:25:00 PM 35.7647 140.3864 North  Level Estimated
Wed 08:26:00 PM 35.7647 140.3864 North  Level Estimated
Wed 08:27:00 PM 35.7647 140.3864 North  Level Estimated
Wed 08:28:00 PM 35.7647 140.3864 North  Level Estimated
Wed 08:29:00 PM 35.7647 140.3864 North  Level Estimated
Wed 08:30:00 PM 35.7647 140.3864 North  Level Estimated
Wed 08:31:00 PM 35.7647 140.3864 North  Level Estimated
Wed 08:32:00 PM 35.7647 140.3864 North  Level Estimated
Wed 08:33:00 PM 35.7647 140.3864 North  Level Estimated
Wed 08:34:00 PM 35.7647 140.3864 North  Level Estimated
Wed 08:35:00 PM 35.7647 140.3864 North  Level Estimated

Login

Don't have an account? Register now (free) for customized features, flight alerts, and more!